sensor_id;sensor_type;location;lat;lon;timestamp;temperature;humidity
23669;DHT22;12011;47.422;15.018;2023-12-04T00:01:05;-13.10;99.90
23669;DHT22;12011;47.422;15.018;2023-12-04T00:03:41;-13.00;99.90
23669;DHT22;12011;47.422;15.018;2023-12-04T00:06:33;-13.10;99.90
23669;DHT22;12011;47.422;15.018;2023-12-04T00:09:02;-12.80;99.90
23669;DHT22;12011;47.422;15.018;2023-12-04T00:11:32;-11.60;99.90
23669;DHT22;12011;47.422;15.018;2023-12-04T00:14:03;-12.90;99.90
23669;DHT22;12011;47.422;15.018;2023-12-04T00:16:34;-12.90;99.90
23669;DHT22;12011;47.422;15.018;2023-12-04T00:19:05;-13.20;99.90
23669;DHT22;12011;47.422;15.018;2023-12-04T00:21:39;-13.10;99.90
23669;DHT22;12011;47.422;15.018;2023-12-04T00:24:09;-13.00;99.90
23669;DHT22;12011;47.422;15.018;2023-12-04T00:26:38;-12.80;99.90
23669;DHT22;12011;47.422;15.018;2023-12-04T00:29:10;-12.80;99.90
23669;DHT22;12011;47.422;15.018;2023-12-04T00:31:41;-12.70;99.90
23669;DHT22;12011;47.422;15.018;2023-12-04T00:34:16;-12.60;99.90
23669;DHT22;12011;47.422;15.018;2023-12-04T00:36:48;-12.50;99.90
23669;DHT22;12011;47.422;15.018;2023-12-04T00:39:20;-12.30;99.90
23669;DHT22;12011;47.422;15.018;2023-12-04T00:41:54;-12.10;99.90
23669;DHT22;12011;47.422;15.018;2023-12-04T00:44:25;-12.00;99.90
23669;DHT22;12011;47.422;15.018;2023-12-04T00:46:57;-12.00;99.90
23669;DHT22;12011;47.422;15.018;2023-12-04T00:49:29;-11.90;99.90
23669;DHT22;12011;47.422;15.018;2023-12-04T00:52:04;-11.80;99.90
23669;DHT22;12011;47.422;15.018;2023-12-04T00:54:39;-11.70;99.90
23669;DHT22;12011;47.422;15.018;2023-12-04T00:57:11;-11.60;99.90
23669;DHT22;12011;47.422;15.018;2023-12-04T00:59:45;-11.70;99.90
23669;DHT22;12011;47.422;15.018;2023-12-04T01:02:17;-11.90;99.90
23669;DHT22;12011;47.422;15.018;2023-12-04T01:04:47;-12.00;99.90
23669;DHT22;12011;47.422;15.018;2023-12-04T01:07:27;-12.10;99.90
23669;DHT22;12011;47.422;15.018;2023-12-04T01:10:07;-12.00;99.90
23669;DHT22;12011;47.422;15.018;2023-12-04T01:12:41;-11.70;99.90
23669;DHT22;12011;47.422;15.018;2023-12-04T01:19:33;-11.30;99.90
23669;DHT22;12011;47.422;15.018;2023-12-04T01:22:04;-11.20;99.90
23669;DHT22;12011;47.422;15.018;2023-12-04T01:24:41;-11.20;99.90
23669;DHT22;12011;47.422;15.018;2023-12-04T01:27:14;-11.10;99.90
23669;DHT22;12011;47.422;15.018;2023-12-04T01:29:48;-10.60;99.90
23669;DHT22;12011;47.422;15.018;2023-12-04T01:32:20;-10.90;99.90
23669;DHT22;12011;47.422;15.018;2023-12-04T01:34:55;-9.90;99.90
23669;DHT22;12011;47.422;15.018;2023-12-04T01:37:28;-10.90;99.90
23669;DHT22;12011;47.422;15.018;2023-12-04T01:40:01;-10.90;99.90
23669;DHT22;12011;47.422;15.018;2023-12-04T01:42:34;-10.90;99.90
23669;DHT22;12011;47.422;15.018;2023-12-04T01:45:08;-10.80;99.90
23669;DHT22;12011;47.422;15.018;2023-12-04T01:47:44;-10.90;99.90
23669;DHT22;12011;47.422;15.018;2023-12-04T01:50:22;-11.00;99.90
23669;DHT22;12011;47.422;15.018;2023-12-04T01:52:52;-9.90;99.90
23669;DHT22;12011;47.422;15.018;2023-12-04T01:55:35;-9.90;99.90
23669;DHT22;12011;47.422;15.018;2023-12-04T01:58:10;-10.00;99.90
23669;DHT22;12011;47.422;15.018;2023-12-04T02:00:41;-10.20;99.90
23669;DHT22;12011;47.422;15.018;2023-12-04T02:03:14;-10.90;99.90
23669;DHT22;12011;47.422;15.018;2023-12-04T02:05:45;-9.80;99.90
23669;DHT22;12011;47.422;15.018;2023-12-04T02:08:21;-11.00;99.90
23669;DHT22;12011;47.422;15.018;2023-12-04T02:11:04;-11.00;99.90
23669;DHT22;12011;47.422;15.018;2023-12-04T02:13:44;-11.00;99.90
23669;DHT22;12011;47.422;15.018;2023-12-04T02:16:16;-10.90;99.90
23669;DHT22;12011;47.422;15.018;2023-12-04T02:18:48;-11.00;99.90
23669;DHT22;12011;47.422;15.018;2023-12-04T02:21:20;-10.80;99.90
23669;DHT22;12011;47.422;15.018;2023-12-04T02:23:57;-10.80;99.90
23669;DHT22;12011;47.422;15.018;2023-12-04T02:26:32;-10.70;99.90
23669;DHT22;12011;47.422;15.018;2023-12-04T02:29:14;-10.70;99.90
23669;DHT22;12011;47.422;15.018;2023-12-04T02:31:52;-10.50;99.90
23669;DHT22;12011;47.422;15.018;2023-12-04T02:34:24;-10.80;99.90
23669;DHT22;12011;47.422;15.018;2023-12-04T02:36:59;-10.80;99.90
23669;DHT22;12011;47.422;15.018;2023-12-04T02:39:31;-9.90;99.90
23669;DHT22;12011;47.422;15.018;2023-12-04T02:42:01;-9.70;99.90
23669;DHT22;12011;47.422;15.018;2023-12-04T02:44:35;-11.10;99.90
23669;DHT22;12011;47.422;15.018;2023-12-04T02:47:08;-11.30;99.90
23669;DHT22;12011;47.422;15.018;2023-12-04T02:49:40;-11.30;99.90
23669;DHT22;12011;47.422;15.018;2023-12-04T02:52:12;-11.30;99.90
23669;DHT22;12011;47.422;15.018;2023-12-04T02:54:45;-10.00;99.90
23669;DHT22;12011;47.422;15.018;2023-12-04T02:57:18;-10.30;99.90
23669;DHT22;12011;47.422;15.018;2023-12-04T02:59:50;-11.10;99.90
23669;DHT22;12011;47.422;15.018;2023-12-04T03:02:37;-10.00;99.90
23669;DHT22;12011;47.422;15.018;2023-12-04T03:05:07;-10.20;99.90
23669;DHT22;12011;47.422;15.018;2023-12-04T03:07:39;-10.80;99.90
23669;DHT22;12011;47.422;15.018;2023-12-04T03:10:20;-11.00;99.90
23669;DHT22;12011;47.422;15.018;2023-12-04T03:12:51;-10.50;99.90
23669;DHT22;12011;47.422;15.018;2023-12-04T03:15:21;-9.80;99.90
23669;DHT22;12011;47.422;15.018;2023-12-04T03:17:55;-11.00;99.90
23669;DHT22;12011;47.422;15.018;2023-12-04T03:20:29;-10.90;99.90
23669;DHT22;12011;47.422;15.018;2023-12-04T03:23:00;-11.10;99.90
23669;DHT22;12011;47.422;15.018;2023-12-04T03:25:39;-11.10;99.90
23669;DHT22;12011;47.422;15.018;2023-12-04T03:28:21;-11.20;99.90
23669;DHT22;12011;47.422;15.018;2023-12-04T03:30:51;-11.20;99.90
23669;DHT22;12011;47.422;15.018;2023-12-04T03:33:25;-11.20;99.90
23669;DHT22;12011;47.422;15.018;2023-12-04T03:35:55;-9.90;99.90
23669;DHT22;12011;47.422;15.018;2023-12-04T03:38:30;-11.10;99.90
23669;DHT22;12011;47.422;15.018;2023-12-04T03:41:13;-11.10;99.90
23669;DHT22;12011;47.422;15.018;2023-12-04T03:43:50;-11.00;99.90
23669;DHT22;12011;47.422;15.018;2023-12-04T03:46:25;-11.20;99.90
23669;DHT22;12011;47.422;15.018;2023-12-04T03:48:59;-11.30;99.90
23669;DHT22;12011;47.422;15.018;2023-12-04T03:51:32;-11.50;99.90
23669;DHT22;12011;47.422;15.018;2023-12-04T03:54:03;-11.50;99.90
23669;DHT22;12011;47.422;15.018;2023-12-04T03:56:35;-11.40;99.90
23669;DHT22;12011;47.422;15.018;2023-12-04T03:59:06;-11.60;99.90
23669;DHT22;12011;47.422;15.018;2023-12-04T04:01:38;-11.80;99.90
23669;DHT22;12011;47.422;15.018;2023-12-04T04:04:12;-10.90;99.90
23669;DHT22;12011;47.422;15.018;2023-12-04T04:06:43;-11.20;99.90
23669;DHT22;12011;47.422;15.018;2023-12-04T04:09:13;-12.00;99.90
23669;DHT22;12011;47.422;15.018;2023-12-04T04:11:48;-12.10;99.90
23669;DHT22;12011;47.422;15.018;2023-12-04T04:14:23;-12.10;99.90
23669;DHT22;12011;47.422;15.018;2023-12-04T04:16:59;-11.80;99.90
23669;DHT22;12011;47.422;15.018;2023-12-04T04:19:32;-12.20;99.90
23669;DHT22;12011;47.422;15.018;2023-12-04T04:22:02;-12.50;99.90
23669;DHT22;12011;47.422;15.018;2023-12-04T04:24:32;-12.50;99.90
23669;DHT22;12011;47.422;15.018;2023-12-04T04:27:05;-12.50;99.90
23669;DHT22;12011;47.422;15.018;2023-12-04T04:29:35;-12.50;99.90
23669;DHT22;12011;47.422;15.018;2023-12-04T04:32:06;-12.50;99.90
23669;DHT22;12011;47.422;15.018;2023-12-04T04:34:40;-12.70;99.90
23669;DHT22;12011;47.422;15.018;2023-12-04T04:37:18;-12.20;99.90
23669;DHT22;12011;47.422;15.018;2023-12-04T04:39:51;-13.10;99.90
23669;DHT22;12011;47.422;15.018;2023-12-04T04:42:27;-13.10;99.90
23669;DHT22;12011;47.422;15.018;2023-12-04T04:45:00;-11.70;99.90
23669;DHT22;12011;47.422;15.018;2023-12-04T04:47:30;-13.00;99.90
23669;DHT22;12011;47.422;15.018;2023-12-04T04:50:02;-13.00;99.90
23669;DHT22;12011;47.422;15.018;2023-12-04T04:52:40;-13.00;99.90
23669;DHT22;12011;47.422;15.018;2023-12-04T04:55:16;-13.00;99.90
23669;DHT22;12011;47.422;15.018;2023-12-04T04:57:52;-13.10;99.90
23669;DHT22;12011;47.422;15.018;2023-12-04T05:00:25;-13.10;99.90
23669;DHT22;12011;47.422;15.018;2023-12-04T05:02:59;-11.70;99.90
23669;DHT22;12011;47.422;15.018;2023-12-04T05:05:30;-13.10;99.90
23669;DHT22;12011;47.422;15.018;2023-12-04T05:08:02;-13.10;99.90
23669;DHT22;12011;47.422;15.018;2023-12-04T05:10:35;-13.00;99.90
23669;DHT22;12011;47.422;15.018;2023-12-04T05:13:10;-13.00;99.90
23669;DHT22;12011;47.422;15.018;2023-12-04T05:15:47;-13.00;99.90
23669;DHT22;12011;47.422;15.018;2023-12-04T05:18:18;-13.30;99.90
23669;DHT22;12011;47.422;15.018;2023-12-04T05:20:51;-13.20;99.90
23669;DHT22;12011;47.422;15.018;2023-12-04T05:23:25;-13.10;99.90
23669;DHT22;12011;47.422;15.018;2023-12-04T05:25:54;-13.30;99.90
23669;DHT22;12011;47.422;15.018;2023-12-04T05:28:27;-13.30;99.90
23669;DHT22;12011;47.422;15.018;2023-12-04T05:30:56;-13.30;99.90
23669;DHT22;12011;47.422;15.018;2023-12-04T05:33:26;-13.30;99.90
23669;DHT22;12011;47.422;15.018;2023-12-04T05:35:55;-13.30;99.90
23669;DHT22;12011;47.422;15.018;2023-12-04T05:38:25;-13.40;99.90
23669;DHT22;12011;47.422;15.018;2023-12-04T05:40:55;-13.40;99.90
23669;DHT22;12011;47.422;15.018;2023-12-04T05:43:27;-13.50;99.90
23669;DHT22;12011;47.422;15.018;2023-12-04T05:45:57;-13.50;99.90
23669;DHT22;12011;47.422;15.018;2023-12-04T05:48:27;-13.50;99.90
23669;DHT22;12011;47.422;15.018;2023-12-04T05:50:56;-13.70;99.90
23669;DHT22;12011;47.422;15.018;2023-12-04T05:53:26;-14.20;99.90
23669;DHT22;12011;47.422;15.018;2023-12-04T05:55:56;-14.10;99.90
23669;DHT22;12011;47.422;15.018;2023-12-04T05:58:29;-14.00;99.90
23669;DHT22;12011;47.422;15.018;2023-12-04T06:00:58;-14.00;99.90
23669;DHT22;12011;47.422;15.018;2023-12-04T06:03:28;-12.50;99.90
23669;DHT22;12011;47.422;15.018;2023-12-04T06:05:58;-13.90;99.90
23669;DHT22;12011;47.422;15.018;2023-12-04T06:08:28;-13.90;99.90
23669;DHT22;12011;47.422;15.018;2023-12-04T06:10:58;-13.90;99.90
23669;DHT22;12011;47.422;15.018;2023-12-04T06:13:31;-13.80;99.90
23669;DHT22;12011;47.422;15.018;2023-12-04T06:16:02;-13.70;99.90
23669;DHT22;12011;47.422;15.018;2023-12-04T06:18:32;-13.70;99.90
23669;DHT22;12011;47.422;15.018;2023-12-04T06:21:02;-13.80;99.90
23669;DHT22;12011;47.422;15.018;2023-12-04T06:23:33;-13.80;99.90
23669;DHT22;12011;47.422;15.018;2023-12-04T06:26:04;-13.80;99.90
23669;DHT22;12011;47.422;15.018;2023-12-04T06:28:37;-13.70;99.90
23669;DHT22;12011;47.422;15.018;2023-12-04T06:31:09;-13.70;99.90
23669;DHT22;12011;47.422;15.018;2023-12-04T06:33:40;-13.80;99.90
23669;DHT22;12011;47.422;15.018;2023-12-04T06:36:13;-13.70;99.90
23669;DHT22;12011;47.422;15.018;2023-12-04T06:38:46;-13.80;99.90
23669;DHT22;12011;47.422;15.018;2023-12-04T06:41:19;-13.90;99.90
23669;DHT22;12011;47.422;15.018;2023-12-04T06:43:55;-13.80;99.90
23669;DHT22;12011;47.422;15.018;2023-12-04T06:46:28;-13.70;99.90
23669;DHT22;12011;47.422;15.018;2023-12-04T06:49:04;-13.70;99.90
23669;DHT22;12011;47.422;15.018;2023-12-04T06:51:35;-13.70;99.90
23669;DHT22;12011;47.422;15.018;2023-12-04T06:54:05;-13.60;99.90
23669;DHT22;12011;47.422;15.018;2023-12-04T06:56:34;-12.20;99.90
23669;DHT22;12011;47.422;15.018;2023-12-04T06:59:06;-13.20;99.90
23669;DHT22;12011;47.422;15.018;2023-12-04T07:01:36;-11.90;99.90
23669;DHT22;12011;47.422;15.018;2023-12-04T07:04:06;-13.00;99.90
23669;DHT22;12011;47.422;15.018;2023-12-04T07:06:36;-13.00;99.90
23669;DHT22;12011;47.422;15.018;2023-12-04T07:09:06;-12.90;99.90
23669;DHT22;12011;47.422;15.018;2023-12-04T07:11:36;-12.90;99.90
23669;DHT22;12011;47.422;15.018;2023-12-04T07:14:09;-12.80;99.90
23669;DHT22;12011;47.422;15.018;2023-12-04T07:16:40;-12.70;99.90
23669;DHT22;12011;47.422;15.018;2023-12-04T07:19:10;-12.60;99.90
23669;DHT22;12011;47.422;15.018;2023-12-04T07:21:41;-12.50;99.90
23669;DHT22;12011;47.422;15.018;2023-12-04T07:24:10;-12.00;99.90
23669;DHT22;12011;47.422;15.018;2023-12-04T07:26:40;-12.50;99.90
23669;DHT22;12011;47.422;15.018;2023-12-04T07:29:12;-12.30;99.90
23669;DHT22;12011;47.422;15.018;2023-12-04T07:31:42;-12.20;99.90
23669;DHT22;12011;47.422;15.018;2023-12-04T07:34:12;-12.10;99.90
23669;DHT22;12011;47.422;15.018;2023-12-04T07:36:41;-12.50;99.90
23669;DHT22;12011;47.422;15.018;2023-12-04T07:39:12;-12.50;99.90
23669;DHT22;12011;47.422;15.018;2023-12-04T07:41:41;-12.50;99.90
23669;DHT22;12011;47.422;15.018;2023-12-04T07:44:14;-11.60;99.90
23669;DHT22;12011;47.422;15.018;2023-12-04T07:46:44;-11.10;99.90
23669;DHT22;12011;47.422;15.018;2023-12-04T07:49:14;-11.80;99.90
23669;DHT22;12011;47.422;15.018;2023-12-04T07:51:43;-12.20;99.90
23669;DHT22;12011;47.422;15.018;2023-12-04T07:54:13;-11.80;99.90
23669;DHT22;12011;47.422;15.018;2023-12-04T07:56:43;-11.90;99.90
23669;DHT22;12011;47.422;15.018;2023-12-04T07:59:15;-10.40;99.90
23669;DHT22;12011;47.422;15.018;2023-12-04T08:01:45;-11.20;99.90
23669;DHT22;12011;47.422;15.018;2023-12-04T08:04:14;-11.50;99.90
23669;DHT22;12011;47.422;15.018;2023-12-04T08:06:44;-10.80;99.90
23669;DHT22;12011;47.422;15.018;2023-12-04T08:09:14;-9.20;99.90
23669;DHT22;12011;47.422;15.018;2023-12-04T08:11:43;-9.40;99.90
23669;DHT22;12011;47.422;15.018;2023-12-04T08:14:16;-9.40;99.90
23669;DHT22;12011;47.422;15.018;2023-12-04T08:16:45;-7.30;99.90
23669;DHT22;12011;47.422;15.018;2023-12-04T08:19:17;-5.50;99.90
23669;DHT22;12011;47.422;15.018;2023-12-04T08:21:46;-3.20;99.90
23669;DHT22;12011;47.422;15.018;2023-12-04T08:24:16;-1.20;97.70
23669;DHT22;12011;47.422;15.018;2023-12-04T08:26:46;0.20;89.00
23669;DHT22;12011;47.422;15.018;2023-12-04T08:29:19;1.00;62.10
23669;DHT22;12011;47.422;15.018;2023-12-04T08:31:49;1.20;51.90
23669;DHT22;12011;47.422;15.018;2023-12-04T08:34:19;1.80;50.30
23669;DHT22;12011;47.422;15.018;2023-12-04T08:36:49;2.20;45.30
23669;DHT22;12011;47.422;15.018;2023-12-04T08:39:18;2.50;45.10
23669;DHT22;12011;47.422;15.018;2023-12-04T08:41:51;2.60;42.90
23669;DHT22;12011;47.422;15.018;2023-12-04T08:44:23;1.50;43.80
23669;DHT22;12011;47.422;15.018;2023-12-04T08:46:53;0.60;46.30
23669;DHT22;12011;47.422;15.018;2023-12-04T08:49:24;1.00;44.80
23669;DHT22;12011;47.422;15.018;2023-12-04T08:51:53;0.50;44.40
23669;DHT22;12011;47.422;15.018;2023-12-04T08:54:24;0.00;47.20
23669;DHT22;12011;47.422;15.018;2023-12-04T08:56:53;0.10;48.40
23669;DHT22;12011;47.422;15.018;2023-12-04T08:59:26;-0.90;47.70
23669;DHT22;12011;47.422;15.018;2023-12-04T09:01:55;-2.20;49.40
23669;DHT22;12011;47.422;15.018;2023-12-04T09:04:25;-3.20;52.20
23669;DHT22;12011;47.422;15.018;2023-12-04T09:06:52;-4.00;60.20
23669;DHT22;12011;47.422;15.018;2023-12-04T09:09:22;-4.60;70.80
23669;DHT22;12011;47.422;15.018;2023-12-04T09:11:54;-4.90;64.70
23669;DHT22;12011;47.422;15.018;2023-12-04T09:14:26;-5.50;76.80
23669;DHT22;12011;47.422;15.018;2023-12-04T09:16:57;-5.60;80.30
23669;DHT22;12011;47.422;15.018;2023-12-04T09:19:27;-5.90;83.00
23669;DHT22;12011;47.422;15.018;2023-12-04T09:42:26;-6.30;92.90
23669;DHT22;12011;47.422;15.018;2023-12-04T09:44:58;-6.30;92.00
23669;DHT22;12011;47.422;15.018;2023-12-04T09:47:30;-5.70;91.10
23669;DHT22;12011;47.422;15.018;2023-12-04T09:50:01;-6.20;88.30
23669;DHT22;12011;47.422;15.018;2023-12-04T09:52:34;-6.10;90.20
23669;DHT22;12011;47.422;15.018;2023-12-04T09:55:05;-6.10;91.90
23669;DHT22;12011;47.422;15.018;2023-12-04T09:57:38;-5.90;92.60
23669;DHT22;12011;47.422;15.018;2023-12-04T10:00:12;-6.10;92.60
23669;DHT22;12011;47.422;15.018;2023-12-04T10:02:42;-6.00;91.20
23669;DHT22;12011;47.422;15.018;2023-12-04T10:05:12;-5.60;91.70
23669;DHT22;12011;47.422;15.018;2023-12-04T10:07:42;-5.80;92.30
23669;DHT22;12011;47.422;15.018;2023-12-04T10:10:12;-5.60;92.00
23669;DHT22;12011;47.422;15.018;2023-12-04T10:12:45;-5.50;93.60
23669;DHT22;12011;47.422;15.018;2023-12-04T10:15:15;-5.30;93.50
23669;DHT22;12011;47.422;15.018;2023-12-04T10:17:45;-5.10;91.40
23669;DHT22;12011;47.422;15.018;2023-12-04T10:20:16;-4.80;91.90
23669;DHT22;12011;47.422;15.018;2023-12-04T10:22:55;-4.70;88.50
23669;DHT22;12011;47.422;15.018;2023-12-04T10:25:27;-4.40;92.80
23669;DHT22;12011;47.422;15.018;2023-12-04T10:28:09;-4.30;91.00
23669;DHT22;12011;47.422;15.018;2023-12-04T10:30:42;-4.50;84.30
23669;DHT22;12011;47.422;15.018;2023-12-04T10:33:12;-4.60;87.80
23669;DHT22;12011;47.422;15.018;2023-12-04T10:35:42;-4.50;91.80
23669;DHT22;12011;47.422;15.018;2023-12-04T10:38:13;-4.10;90.50
23669;DHT22;12011;47.422;15.018;2023-12-04T10:40:43;-4.10;90.30
23669;DHT22;12011;47.422;15.018;2023-12-04T10:43:17;-3.90;91.40
23669;DHT22;12011;47.422;15.018;2023-12-04T10:45:49;-3.80;92.00
23669;DHT22;12011;47.422;15.018;2023-12-04T10:48:20;-3.70;89.30
23669;DHT22;12011;47.422;15.018;2023-12-04T10:50:50;-3.30;87.70
23669;DHT22;12011;47.422;15.018;2023-12-04T10:53:20;-3.40;85.00
23669;DHT22;12011;47.422;15.018;2023-12-04T10:55:54;-3.40;85.40
23669;DHT22;12011;47.422;15.018;2023-12-04T10:58:30;-3.40;86.70
23669;DHT22;12011;47.422;15.018;2023-12-04T11:01:01;-3.20;88.70
23669;DHT22;12011;47.422;15.018;2023-12-04T11:03:37;-2.80;88.20
23669;DHT22;12011;47.422;15.018;2023-12-04T11:06:16;-2.90;85.80
23669;DHT22;12011;47.422;15.018;2023-12-04T11:08:48;-2.70;86.20
23669;DHT22;12011;47.422;15.018;2023-12-04T11:11:25;-2.60;83.60
23669;DHT22;12011;47.422;15.018;2023-12-04T11:14:02;-2.50;80.70
23669;DHT22;12011;47.422;15.018;2023-12-04T11:16:41;-2.20;80.40
23669;DHT22;12011;47.422;15.018;2023-12-04T11:19:19;-2.30;78.60
23669;DHT22;12011;47.422;15.018;2023-12-04T11:21:53;-2.20;82.70
23669;DHT22;12011;47.422;15.018;2023-12-04T11:24:25;-2.10;81.40
23669;DHT22;12011;47.422;15.018;2023-12-04T11:26:56;-2.40;82.50
23669;DHT22;12011;47.422;15.018;2023-12-04T11:29:29;-2.40;85.10
23669;DHT22;12011;47.422;15.018;2023-12-04T11:31:59;-2.90;87.20
23669;DHT22;12011;47.422;15.018;2023-12-04T11:34:32;-2.50;84.40
23669;DHT22;12011;47.422;15.018;2023-12-04T11:37:02;-2.70;87.40
23669;DHT22;12011;47.422;15.018;2023-12-04T11:39:35;-2.70;88.30
23669;DHT22;12011;47.422;15.018;2023-12-04T11:42:06;-2.50;87.50
23669;DHT22;12011;47.422;15.018;2023-12-04T11:44:41;-2.60;86.50
23669;DHT22;12011;47.422;15.018;2023-12-04T11:47:11;-2.50;86.10
23669;DHT22;12011;47.422;15.018;2023-12-04T11:49:41;-2.50;83.00
23669;DHT22;12011;47.422;15.018;2023-12-04T11:52:10;-2.80;86.80
23669;DHT22;12011;47.422;15.018;2023-12-04T11:54:57;-2.70;89.10
23669;DHT22;12011;47.422;15.018;2023-12-04T11:57:33;-2.70;90.40
23669;DHT22;12011;47.422;15.018;2023-12-04T12:00:19;-2.60;90.20
23669;DHT22;12011;47.422;15.018;2023-12-04T12:03:05;-2.40;88.60
23669;DHT22;12011;47.422;15.018;2023-12-04T12:05:37;-2.50;88.50
23669;DHT22;12011;47.422;15.018;2023-12-04T12:08:08;-2.20;84.50
23669;DHT22;12011;47.422;15.018;2023-12-04T12:10:38;-2.70;90.10
23669;DHT22;12011;47.422;15.018;2023-12-04T12:13:10;-2.80;90.20
23669;DHT22;12011;47.422;15.018;2023-12-04T12:15:47;-3.00;91.50
23669;DHT22;12011;47.422;15.018;2023-12-04T12:18:17;-3.00;91.20
23669;DHT22;12011;47.422;15.018;2023-12-04T12:20:46;-3.40;92.10
23669;DHT22;12011;47.422;15.018;2023-12-04T12:23:16;-2.40;94.30
23669;DHT22;12011;47.422;15.018;2023-12-04T12:25:46;-2.30;94.60
23669;DHT22;12011;47.422;15.018;2023-12-04T12:28:16;-3.40;95.10
23669;DHT22;12011;47.422;15.018;2023-12-04T12:30:49;-3.30;95.40
23669;DHT22;12011;47.422;15.018;2023-12-04T12:33:20;-3.50;94.60
23669;DHT22;12011;47.422;15.018;2023-12-04T12:35:51;-3.60;95.40
23669;DHT22;12011;47.422;15.018;2023-12-04T12:38:21;-3.70;98.40
23669;DHT22;12011;47.422;15.018;2023-12-04T12:40:50;-3.60;99.40
23669;DHT22;12011;47.422;15.018;2023-12-04T12:43:21;-3.40;98.70
23669;DHT22;12011;47.422;15.018;2023-12-04T12:45:53;-3.30;97.40
23669;DHT22;12011;47.422;15.018;2023-12-04T12:48:23;-3.20;97.50
23669;DHT22;12011;47.422;15.018;2023-12-04T12:50:52;-2.00;97.50
23669;DHT22;12011;47.422;15.018;2023-12-04T12:53:24;-3.20;98.60
23669;DHT22;12011;47.422;15.018;2023-12-04T12:55:54;-3.10;99.90
23669;DHT22;12011;47.422;15.018;2023-12-04T12:58:25;-3.20;99.90
23669;DHT22;12011;47.422;15.018;2023-12-04T13:00:57;-3.30;99.90
23669;DHT22;12011;47.422;15.018;2023-12-04T13:03:30;-3.30;99.90
23669;DHT22;12011;47.422;15.018;2023-12-04T13:06:00;-3.60;99.90
23669;DHT22;12011;47.422;15.018;2023-12-04T13:08:30;-3.70;98.60
23669;DHT22;12011;47.422;15.018;2023-12-04T13:10:59;-4.10;98.80
23669;DHT22;12011;47.422;15.018;2023-12-04T13:13:29;-4.10;99.90
23669;DHT22;12011;47.422;15.018;2023-12-04T13:16:02;-4.00;99.90
23669;DHT22;12011;47.422;15.018;2023-12-04T13:18:32;-4.10;99.90
23669;DHT22;12011;47.422;15.018;2023-12-04T13:21:04;-3.90;99.90
23669;DHT22;12011;47.422;15.018;2023-12-04T13:23:36;-4.10;99.90
23669;DHT22;12011;47.422;15.018;2023-12-04T13:26:07;-4.00;99.90
23669;DHT22;12011;47.422;15.018;2023-12-04T13:28:37;-4.00;99.90
23669;DHT22;12011;47.422;15.018;2023-12-04T13:31:09;-4.20;99.90
23669;DHT22;12011;47.422;15.018;2023-12-04T13:33:39;-4.20;99.90
23669;DHT22;12011;47.422;15.018;2023-12-04T13:36:10;-4.40;99.90
23669;DHT22;12011;47.422;15.018;2023-12-04T13:38:40;-4.40;99.90
23669;DHT22;12011;47.422;15.018;2023-12-04T13:41:11;-4.40;99.90
23669;DHT22;12011;47.422;15.018;2023-12-04T13:44:08;-4.60;99.90
23669;DHT22;12011;47.422;15.018;2023-12-04T13:46:38;-4.60;99.90
23669;DHT22;12011;47.422;15.018;2023-12-04T13:49:07;-4.70;99.90
23669;DHT22;12011;47.422;15.018;2023-12-04T13:51:37;-4.70;99.90
23669;DHT22;12011;47.422;15.018;2023-12-04T13:54:07;-4.80;99.90
23669;DHT22;12011;47.422;15.018;2023-12-04T13:56:47;-4.50;99.90
23669;DHT22;12011;47.422;15.018;2023-12-04T13:59:23;-4.50;99.90
23669;DHT22;12011;47.422;15.018;2023-12-04T14:01:56;-5.00;99.90
23669;DHT22;12011;47.422;15.018;2023-12-04T14:04:26;-5.00;99.90
23669;DHT22;12011;47.422;15.018;2023-12-04T14:06:56;-4.70;99.90
23669;DHT22;12011;47.422;15.018;2023-12-04T14:09:26;-4.90;99.90
23669;DHT22;12011;47.422;15.018;2023-12-04T14:11:56;-4.80;99.90
23669;DHT22;12011;47.422;15.018;2023-12-04T14:14:25;-4.80;99.90
23669;DHT22;12011;47.422;15.018;2023-12-04T14:16:57;-4.90;99.90
23669;DHT22;12011;47.422;15.018;2023-12-04T14:19:29;-5.10;99.90
23669;DHT22;12011;47.422;15.018;2023-12-04T14:21:59;-5.10;99.90
23669;DHT22;12011;47.422;15.018;2023-12-04T14:24:29;-5.10;99.90
23669;DHT22;12011;47.422;15.018;2023-12-04T14:26:59;-5.10;99.90
23669;DHT22;12011;47.422;15.018;2023-12-04T14:29:29;-5.10;99.90
23669;DHT22;12011;47.422;15.018;2023-12-04T14:32:01;-4.70;99.90
23669;DHT22;12011;47.422;15.018;2023-12-04T14:34:31;-5.10;99.90
23669;DHT22;12011;47.422;15.018;2023-12-04T14:37:01;-5.00;99.90
23669;DHT22;12011;47.422;15.018;2023-12-04T14:39:31;-4.70;99.90
23669;DHT22;12011;47.422;15.018;2023-12-04T14:42:00;-5.00;99.90
23669;DHT22;12011;47.422;15.018;2023-12-04T14:44:30;-4.90;99.90
23669;DHT22;12011;47.422;15.018;2023-12-04T14:47:03;-5.00;99.90
23669;DHT22;12011;47.422;15.018;2023-12-04T14:49:35;-5.10;99.90
23669;DHT22;12011;47.422;15.018;2023-12-04T14:52:04;-5.30;99.90
23669;DHT22;12011;47.422;15.018;2023-12-04T14:54:36;-5.30;99.90
23669;DHT22;12011;47.422;15.018;2023-12-04T14:57:18;-5.30;99.90
23669;DHT22;12011;47.422;15.018;2023-12-04T15:00:03;-4.90;99.90
23669;DHT22;12011;47.422;15.018;2023-12-04T15:02:49;-5.20;99.90
23669;DHT22;12011;47.422;15.018;2023-12-04T15:05:34;-5.40;99.90
23669;DHT22;12011;47.422;15.018;2023-12-04T15:08:16;-5.40;99.90
23669;DHT22;12011;47.422;15.018;2023-12-04T15:11:19;-5.40;99.90
23669;DHT22;12011;47.422;15.018;2023-12-04T15:14:06;-5.50;99.90
23669;DHT22;12011;47.422;15.018;2023-12-04T15:16:46;-5.40;99.90
23669;DHT22;12011;47.422;15.018;2023-12-04T15:19:21;-5.50;99.90
23669;DHT22;12011;47.422;15.018;2023-12-04T15:22:02;-5.50;99.90
23669;DHT22;12011;47.422;15.018;2023-12-04T15:24:31;-5.60;99.90
23669;DHT22;12011;47.422;15.018;2023-12-04T15:27:00;-5.70;99.90
23669;DHT22;12011;47.422;15.018;2023-12-04T15:29:29;-5.60;99.90
23669;DHT22;12011;47.422;15.018;2023-12-04T15:31:59;-5.10;99.90
23669;DHT22;12011;47.422;15.018;2023-12-04T15:34:28;-5.60;99.90
23669;DHT22;12011;47.422;15.018;2023-12-04T15:36:58;-5.70;99.90
23669;DHT22;12011;47.422;15.018;2023-12-04T15:39:25;-5.70;99.90
23669;DHT22;12011;47.422;15.018;2023-12-04T15:41:55;-5.70;99.90
23669;DHT22;12011;47.422;15.018;2023-12-04T15:44:22;-5.70;99.90
23669;DHT22;12011;47.422;15.018;2023-12-04T15:46:52;-5.70;99.90
23669;DHT22;12011;47.422;15.018;2023-12-04T15:49:19;-5.50;99.90
23669;DHT22;12011;47.422;15.018;2023-12-04T15:51:52;-5.70;99.90
23669;DHT22;12011;47.422;15.018;2023-12-04T15:54:19;-5.70;99.90
23669;DHT22;12011;47.422;15.018;2023-12-04T15:56:48;-5.60;99.90
23669;DHT22;12011;47.422;15.018;2023-12-04T15:59:16;-5.40;99.90
23669;DHT22;12011;47.422;15.018;2023-12-04T16:01:45;-5.50;99.90
23669;DHT22;12011;47.422;15.018;2023-12-04T16:04:15;-5.30;99.90
23669;DHT22;12011;47.422;15.018;2023-12-04T16:06:45;-5.50;99.90